Aeroporto :
LOGIN :

Iscrizione | Disclaimer

   EN    FR    IT 

 










Sommario :    VFR   VFR Marginale   IFR   IFR Intensivo   IFR Molto Intensivo
Visibilità : 
Base nubi : 
>= 8 km
>= 3000ft
5 / 8 km
1000 / 3000 ft
1500m / 5 km
500 / 1000 ft
800 / 1500m
200 / 500 ft
< 800m
< 200 ft
Simboli :   Temporali  Nebbia  Neve Forte  Precipitazioni Forti  Vento > 20 kt
SIGMETs :   Varie  Temporali  Ghiacco  Turbolenza  Onda orograficha  Ceneri Vulcaniche






- Altitudine del aeroporto : 273 ft


EGXT - RAF Wittering Stamford

ULTIMO METAR :
  • 220020Z AUTO 20009KT 9999 NCD 07/06 Q0994

METARs OBSOLETI :
  • 212350Z AUTO 22009KT 9999 BKN034/// 08/06 Q0994
  • 212320Z AUTO 22012KT 9999 FEW020/// SCT036/// 09/07 Q0995
  • 212250Z AUTO 21010KT 9999 SCT017/// BKN039/// 09/08 Q0995
  • 212220Z AUTO 22011KT 9999 BKN041/// BKN150/// 10/08 Q0995
  • 212150Z AUTO 21012KT 9999 SCT017/// BKN160/// 10/09 Q0995
  • 212120Z AUTO 21010KT 9999 OVC010/// 10/09 Q0996
  • 212050Z AUTO 22010KT 9999 FEW020/// OVC190/// 10/09 Q0995
  • 212020Z AUTO 21010KT 9999 OVC190/// 10/09 Q0995
  • 211950Z AUTO 22010KT 9999 OVC200/// 11/09 Q0995

Previsioni scadute.



MetMap, La meteo Aeronautica in un colpo d'occhio ! - Copyright ORBIFLY Dicembre 2007 - Disclaimer

ORBIFLY MET'MAP TEAM :

Programmazione e sviluppo : Alexandra Zaïnal
Concezione : Baudouin d'Aumeries
Supporto tecnico e logistico : Manuel Goepfert
Aiuto : Marc-Olivier Méhu
Aiuto per la traduzione : Arnaldo La Scala




FONTI E CREDITI :

   NOAA